Time;durP1;ratioP1;P1;durP2;ratioP2;P2;SDS_P1;SDS_P2;PMS_P1;PMS_P2;Temp;Humidity;BMP_temperature;BMP_pressure;BME280_temperature;BME280_humidity;BME280_pressure;Samples;Min_cycle;Max_cycle;Signal;HPM_P1;HPM_P2
2023/05/02 00:00:35;;;;;;;3.67;1.60;;;15.20;91.10;;;;;;4985640;28;20159;-55
2023/05/02 00:03:00;;;;;;;2.33;1.52;;;15.20;91.10;;;;;;4985643;28;20038;-55
2023/05/02 00:05:51;;;;;;;3.58;1.40;;;15.20;91.10;;;;;;4969236;28;20097;-54
2023/05/02 00:18:23;;;;;;;2.55;1.10;;;15.10;91.10;;;;;;4987016;28;20080;-55
2023/05/02 00:20:49;;;;;;;5.28;1.60;;;15.10;91.10;;;;;;4986960;28;20090;-54
2023/05/02 00:23:15;;;;;;;1.75;1.23;;;15.10;91.20;;;;;;4969261;28;20033;-55
2023/05/02 00:25:44;;;;;;;5.78;1.40;;;15.10;91.20;;;;;;4986684;28;20081;-55
2023/05/02 00:28:10;;;;;;;3.35;1.60;;;15.10;91.30;;;;;;4968915;28;20034;-55
2023/05/02 00:30:36;;;;;;;3.05;1.38;;;15.00;91.20;;;;;;4986564;28;20061;-55
2023/05/02 00:33:01;;;;;;;1.55;1.20;;;15.00;91.20;;;;;;4985117;28;20058;-55
2023/05/02 00:35:27;;;;;;;1.80;1.40;;;15.00;91.20;;;;;;4986481;28;20026;-54
2023/05/02 00:37:52;;;;;;;1.65;1.17;;;15.00;91.30;;;;;;4984871;28;20043;-55
2023/05/02 00:40:18;;;;;;;2.00;1.63;;;15.00;91.20;;;;;;4984555;28;20066;-55
2023/05/02 00:42:43;;;;;;;1.50;1.20;;;15.00;91.20;;;;;;4987169;28;20341;-54
2023/05/02 00:45:09;;;;;;;1.63;1.40;;;15.00;91.30;;;;;;4987744;28;20062;-54
2023/05/02 00:47:35;;;;;;;2.45;1.38;;;15.00;91.30;;;;;;4984877;28;20033;-55
2023/05/02 00:50:01;;;;;;;3.70;1.23;;;15.00;91.30;;;;;;4984907;28;20081;-55
2023/05/02 00:52:27;;;;;;;1.92;1.30;;;15.00;91.30;;;;;;4984803;28;20139;-55
2023/05/02 00:54:53;;;;;;;1.42;1.08;;;15.00;91.40;;;;;;4986076;28;20049;-55
2023/05/02 00:57:18;;;;;;;2.50;1.30;;;15.00;91.30;;;;;;4984571;28;20027;-55
2023/05/02 00:59:44;;;;;;;1.98;1.17;;;15.00;91.40;;;;;;4984688;28;20440;-55
2023/05/02 01:02:34;;;;;;;3.28;1.40;;;14.90;91.30;;;;;;4968472;28;20447;-55
2023/05/02 01:05:09;;;;;;;1.95;1.30;;;14.90;91.40;;;;;;4976922;28;20062;-55
2023/05/02 01:07:59;;;;;;;2.80;1.30;;;14.90;91.30;;;;;;4984786;28;20106;-55
2023/05/02 01:10:57;;;;;;;4.55;1.25;;;14.90;91.40;;;;;;4984491;28;20039;-55
2023/05/02 01:13:28;;;;;;;3.55;1.20;;;14.90;91.40;;;;;;4985169;28;20043;-54
2023/05/02 01:15:54;;;;;;;2.30;1.63;;;14.90;91.40;;;;;;4984372;28;20077;-55
2023/05/02 01:18:21;;;;;;;5.68;1.40;;;14.90;91.40;;;;;;4968297;28;20035;-55
2023/05/02 01:20:47;;;;;;;1.83;1.33;;;14.90;91.40;;;;;;4984580;28;20460;-55
2023/05/02 01:23:22;;;;;;;1.52;1.17;;;14.90;91.40;;;;;;4984301;28;20448;-54
2023/05/02 01:26:06;;;;;;;1.30;1.20;;;14.90;91.40;;;;;;4968290;28;20039;-55
2023/05/02 01:28:48;;;;;;;2.10;1.25;;;14.90;91.50;;;;;;4985813;28;20190;-55
2023/05/02 01:31:15;;;;;;;1.50;1.23;;;14.90;91.40;;;;;;4985869;28;20115;-55
2023/05/02 01:33:40;;;;;;;1.77;1.15;;;14.90;91.50;;;;;;4968210;28;20039;-54
2023/05/02 01:36:06;;;;;;;1.90;1.35;;;14.90;91.50;;;;;;4984459;28;20023;-55
2023/05/02 01:38:32;;;;;;;2.63;1.60;;;14.90;91.50;;;;;;4968146;28;20031;-55
2023/05/02 01:40:57;;;;;;;2.35;1.67;;;14.90;91.50;;;;;;4984303;28;20066;-55
2023/05/02 01:43:23;;;;;;;2.38;1.95;;;14.80;91.80;;;;;;4984206;28;20042;-55
2023/05/02 01:45:49;;;;;;;3.95;1.90;;;14.80;91.50;;;;;;4984435;28;20127;-55
2023/05/02 01:48:15;;;;;;;2.60;1.90;;;14.90;91.60;;;;;;4968040;28;20030;-55
2023/05/02 01:50:41;;;;;;;3.70;2.30;;;14.80;91.60;;;;;;4984642;28;20077;-55
2023/05/02 01:53:07;;;;;;;3.78;2.30;;;14.80;91.50;;;;;;4984054;28;20046;-55
2023/05/02 01:55:33;;;;;;;3.00;2.13;;;14.80;91.50;;;;;;4984187;28;20023;-55
2023/05/02 01:57:59;;;;;;;2.45;2.25;;;14.80;91.50;;;;;;4983963;28;20031;-54
2023/05/02 02:00:24;;;;;;;3.22;2.50;;;14.80;91.80;;;;;;4984222;28;20027;-55
2023/05/02 02:02:50;;;;;;;2.88;2.63;;;14.80;91.60;;;;;;4984208;28;20035;-55
2023/05/02 02:05:16;;;;;;;4.38;2.67;;;14.80;91.60;;;;;;4984217;28;20038;-55
2023/05/02 02:07:42;;;;;;;4.28;2.78;;;14.80;91.60;;;;;;4967841;28;20077;-54
2023/05/02 02:10:07;;;;;;;3.22;2.40;;;14.80;92.00;;;;;;4983967;28;20513;-55
2023/05/02 02:12:52;;;;;;;4.88;2.75;;;14.80;91.70;;;;;;4985266;28;20019;-54
2023/05/02 02:15:24;;;;;;;3.03;2.50;;;14.80;91.70;;;;;;4984156;28;20035;-55
2023/05/02 02:17:59;;;;;;;4.25;2.63;;;14.80;91.80;;;;;;4983878;28;20022;-55
2023/05/02 02:20:24;;;;;;;5.40;2.90;;;14.70;91.70;;;;;;4967996;28;20035;-55
2023/05/02 02:22:50;;;;;;;3.38;2.70;;;14.70;91.80;;;;;;4987448;28;20054;-55
2023/05/02 02:25:16;;;;;;;6.10;3.00;;;14.70;91.80;;;;;;4988274;28;20122;-55
2023/05/02 02:27:42;;;;;;;4.78;3.17;;;14.70;91.80;;;;;;4988018;28;20328;-55
2023/05/02 02:30:08;;;;;;;5.00;2.85;;;14.70;91.90;;;;;;4988713;28;20117;-55
2023/05/02 02:32:33;;;;;;;4.20;2.83;;;14.70;91.90;;;;;;4987187;28;20027;-55
2023/05/02 02:34:59;;;;;;;3.22;2.92;;;14.70;92.00;;;;;;4988279;28;20049;-55
2023/05/02 02:37:36;;;;;;;5.45;3.20;;;14.70;92.00;;;;;;4970977;28;20023;-55
2023/05/02 02:40:24;;;;;;;4.43;2.60;;;14.70;92.00;;;;;;4987308;28;20046;-54
2023/05/02 02:43:09;;;;;;;4.07;2.88;;;14.70;92.00;;;;;;4987252;28;20030;-55
2023/05/02 02:45:41;;;;;;;4.75;3.13;;;14.70;92.00;;;;;;4970942;28;20038;-55
2023/05/02 02:48:07;;;;;;;4.47;2.53;;;14.70;92.00;;;;;;4987069;28;20046;-55
2023/05/02 02:50:37;;;;;;;3.08;2.63;;;14.70;92.00;;;;;;4988421;28;20037;-54
2023/05/02 02:53:08;;;;;;;5.15;3.13;;;14.70;92.00;;;;;;4986823;28;20098;-55
2023/05/02 02:56:08;;;;;;;5.22;2.67;;;14.70;92.00;;;;;;4986933;28;20038;-55
2023/05/02 02:58:47;;;;;;;6.57;2.45;;;14.70;92.00;;;;;;4979170;28;20057;-54
2023/05/02 03:01:20;;;;;;;3.10;2.60;;;14.70;92.00;;;;;;4986757;28;20058;-55
2023/05/02 03:03:46;;;;;;;5.38;2.60;;;14.70;92.00;;;;;;4986816;28;20029;-54
2023/05/02 03:06:12;;;;;;;4.00;2.60;;;14.70;92.10;;;;;;4970507;28;20102;-55
2023/05/02 03:08:41;;;;;;;3.40;2.72;;;14.70;92.10;;;;;;4986618;28;20027;-55
2023/05/02 03:11:08;;;;;;;3.85;2.70;;;14.70;92.10;;;;;;4987956;28;20031;-55
2023/05/02 03:13:34;;;;;;;3.47;2.35;;;14.70;92.10;;;;;;4986371;28;20038;-55
2023/05/02 03:16:12;;;;;;;3.33;2.70;;;14.70;92.10;;;;;;4986403;28;20035;-55
2023/05/02 03:18:38;;;;;;;3.15;2.40;;;14.70;92.20;;;;;;4971214;28;20539;-54
2023/05/02 03:21:03;;;;;;;4.45;2.50;;;14.60;92.10;;;;;;4986320;28;20031;-55
2023/05/02 03:23:29;;;;;;;3.78;2.55;;;14.70;92.20;;;;;;4986201;28;20058;-55
2023/05/02 03:25:54;;;;;;;3.20;2.10;;;14.60;92.20;;;;;;4988143;28;20053;-55
2023/05/02 03:28:20;;;;;;;5.40;3.90;;;14.60;92.20;;;;;;4986249;28;20030;-55
2023/05/02 03:30:45;;;;;;;6.55;4.32;;;14.60;92.20;;;;;;4986013;28;20035;-55
2023/05/02 03:33:11;;;;;;;4.85;3.70;;;14.60;92.20;;;;;;4987490;28;20224;-55
2023/05/02 03:35:37;;;;;;;5.32;3.78;;;14.60;92.20;;;;;;4986097;28;20027;-55
2023/05/02 03:38:02;;;;;;;68.25;9.38;;;14.60;92.20;;;;;;4986156;28;20483;-55
2023/05/02 03:40:28;;;;;;;15.73;5.50;;;14.60;92.30;;;;;;4985851;28;20027;-55
2023/05/02 03:42:53;;;;;;;28.60;6.80;;;14.60;92.30;;;;;;4987030;28;20041;-54
2023/05/02 03:45:19;;;;;;;40.33;8.25;;;14.60;92.30;;;;;;4985807;28;20078;-55
2023/05/02 03:47:44;;;;;;;40.92;7.68;;;14.60;92.30;;;;;;4985801;28;20098;-55
2023/05/02 03:50:10;;;;;;;40.47;7.90;;;14.60;92.40;;;;;;4986024;28;20031;-55
2023/05/02 03:52:36;;;;;;;45.67;7.75;;;14.50;92.40;;;;;;4987036;28;20038;-55
2023/05/02 03:55:02;;;;;;;21.48;6.68;;;14.60;92.50;;;;;;4969481;28;20407;-55
2023/05/02 03:57:30;;;;;;;28.60;5.80;;;14.60;92.40;;;;;;4986845;28;20031;-55
2023/05/02 03:59:55;;;;;;;26.63;6.30;;;14.50;92.40;;;;;;4969307;28;20038;-55
2023/05/02 04:02:21;;;;;;;33.88;7.20;;;14.60;92.50;;;;;;4969176;28;20022;-55
2023/05/02 04:04:46;;;;;;;37.03;8.05;;;14.50;92.50;;;;;;4985534;28;20031;-55
2023/05/02 04:07:17;;;;;;;29.88;6.60;;;14.60;92.40;;;;;;4985484;28;20033;-54
2023/05/02 04:09:43;;;;;;;36.33;6.75;;;14.60;92.40;;;;;;4970028;28;20035;-54
2023/05/02 04:12:08;;;;;;;27.75;6.45;;;14.60;92.40;;;;;;4969124;28;20023;-55
2023/05/02 04:14:34;;;;;;;25.83;6.40;;;14.60;92.40;;;;;;4984912;28;20031;-55
2023/05/02 04:16:59;;;;;;;29.17;6.63;;;14.60;92.50;;;;;;4986446;28;20035;-54
2023/05/02 04:19:25;;;;;;;34.92;6.32;;;14.60;92.40;;;;;;4985372;28;20195;-54
2023/05/02 04:21:50;;;;;;;35.95;6.75;;;14.60;92.40;;;;;;4985114;28;20027;-55
2023/05/02 04:24:16;;;;;;;29.17;6.82;;;14.60;92.40;;;;;;4969056;28;20039;-55
2023/05/02 04:26:41;;;;;;;28.52;6.22;;;14.60;92.40;;;;;;4986512;28;20050;-55
2023/05/02 04:29:07;;;;;;;27.02;6.15;;;14.60;92.40;;;;;;4985220;28;20055;-55
2023/05/02 04:31:33;;;;;;;24.50;6.97;;;14.60;92.50;;;;;;4986616;28;20035;-55
2023/05/02 04:33:58;;;;;;;26.05;5.88;;;14.60;92.40;;;;;;4985191;28;20034;-55
2023/05/02 04:36:25;;;;;;;26.40;6.38;;;14.50;92.40;;;;;;4968881;28;20023;-54
2023/05/02 04:38:51;;;;;;;24.60;6.10;;;14.60;92.40;;;;;;4984891;28;20078;-55
2023/05/02 04:41:17;;;;;;;16.70;5.50;;;14.60;92.50;;;;;;4968529;28;20094;-55
2023/05/02 04:43:43;;;;;;;21.48;5.47;;;14.50;92.50;;;;;;4984454;28;20027;-55
2023/05/02 04:46:08;;;;;;;26.80;5.97;;;14.50;92.50;;;;;;4984826;28;20047;-55
2023/05/02 04:48:34;;;;;;;29.17;6.05;;;14.50;92.60;;;;;;4984738;28;20471;-55
2023/05/02 04:51:00;;;;;;;12.88;4.75;;;14.50;92.60;;;;;;4984916;28;20041;-55
2023/05/02 04:53:25;;;;;;;17.52;5.28;;;14.50;92.70;;;;;;4986681;28;20031;-54
2023/05/02 04:55:51;;;;;;;18.55;5.55;;;14.50;92.70;;;;;;4986129;28;20034;-54
2023/05/02 04:58:16;;;;;;;21.55;5.20;;;14.50;92.70;;;;;;4984351;28;20033;-54
2023/05/02 05:00:42;;;;;;;23.85;5.10;;;14.50;92.80;;;;;;4969179;28;20027;-55
2023/05/02 05:03:07;;;;;;;17.10;4.88;;;14.50;92.90;;;;;;4985045;28;20094;-55
2023/05/02 05:05:33;;;;;;;23.83;5.20;;;14.50;93.00;;;;;;4986272;28;20028;-55
2023/05/02 05:07:59;;;;;;;14.07;4.53;;;14.50;93.10;;;;;;4986025;28;20034;-54
2023/05/02 05:10:24;;;;;;;17.25;5.05;;;14.50;93.20;;;;;;4968476;28;20046;-55
2023/05/02 05:12:50;;;;;;;10.30;3.80;;;14.50;93.30;;;;;;4984223;28;20030;-55
2023/05/02 05:15:15;;;;;;;19.30;4.57;;;14.50;93.30;;;;;;4984700;28;20363;-55
2023/05/02 05:17:41;;;;;;;21.42;4.68;;;14.50;93.20;;;;;;4984219;28;20491;-55
2023/05/02 05:20:10;;;;;;;22.42;4.72;;;14.50;93.20;;;;;;4985830;28;20391;-54
2023/05/02 05:22:40;;;;;;;23.05;5.22;;;14.50;93.10;;;;;;4984266;28;21111;-55
2023/05/02 05:25:06;;;;;;;21.45;4.90;;;14.50;93.10;;;;;;4984304;28;20031;-55
2023/05/02 05:27:33;;;;;;;20.75;5.10;;;14.50;93.00;;;;;;4967992;28;20042;-60
2023/05/02 05:29:59;;;;;;;22.75;4.75;;;14.50;93.00;;;;;;4984333;28;20058;-60
2023/05/02 05:32:25;;;;;;;24.20;5.22;;;14.50;92.90;;;;;;4984203;28;20032;-60
2023/05/02 05:34:52;;;;;;;15.80;4.35;;;14.50;92.90;;;;;;4968080;28;20086;-59
2023/05/02 05:37:18;;;;;;;14.02;5.15;;;14.50;92.90;;;;;;4983511;28;20043;-60
2023/05/02 05:39:44;;;;;;;19.35;4.15;;;14.50;93.00;;;;;;4984024;28;20031;-60
2023/05/02 05:42:09;;;;;;;16.02;4.68;;;14.50;93.00;;;;;;4984229;28;20023;-60
2023/05/02 05:44:38;;;;;;;18.42;4.05;;;14.50;93.00;;;;;;4985608;28;20034;-60
2023/05/02 05:47:04;;;;;;;20.95;4.65;;;14.50;93.00;;;;;;4985482;28;20030;-60
2023/05/02 05:49:29;;;;;;;12.25;3.90;;;14.50;93.00;;;;;;4985713;28;20233;-60
2023/05/02 05:51:55;;;;;;;14.77;3.88;;;14.50;93.00;;;;;;4984216;28;20046;-60
2023/05/02 05:54:20;;;;;;;18.35;4.68;;;14.50;93.00;;;;;;4985127;28;20085;-60
2023/05/02 05:56:46;;;;;;;16.00;4.20;;;14.50;93.00;;;;;;4988052;28;20118;-60
2023/05/02 05:59:12;;;;;;;11.88;3.83;;;14.50;93.00;;;;;;4989396;28;20042;-60
2023/05/02 06:01:37;;;;;;;12.27;3.95;;;14.50;93.00;;;;;;4989301;28;20046;-60
2023/05/02 06:04:06;;;;;;;15.57;4.43;;;14.50;93.00;;;;;;4987039;28;20039;-60
2023/05/02 06:06:32;;;;;;;11.18;3.92;;;14.50;93.00;;;;;;4988695;28;20054;-60
2023/05/02 06:08:57;;;;;;;9.75;3.80;;;14.50;93.00;;;;;;4987567;28;20035;-60
2023/05/02 06:11:23;;;;;;;9.02;3.53;;;14.50;92.90;;;;;;4971182;28;20031;-60
2023/05/02 06:13:52;;;;;;;6.68;3.30;;;14.50;92.90;;;;;;4986707;28;20058;-60
2023/05/02 06:16:17;;;;;;;10.30;3.83;;;14.50;92.90;;;;;;4987825;28;20027;-59
2023/05/02 06:18:43;;;;;;;13.43;4.03;;;14.50;92.90;;;;;;4987974;28;20161;-60
2023/05/02 06:21:09;;;;;;;6.38;3.17;;;14.50;92.90;;;;;;4987854;28;20106;-60
2023/05/02 06:23:35;;;;;;;13.13;3.70;;;14.50;92.90;;;;;;4986911;28;20034;-60
2023/05/02 06:26:01;;;;;;;7.80;3.47;;;14.50;92.90;;;;;;4970828;28;20030;-60
2023/05/02 06:28:27;;;;;;;10.20;3.45;;;14.60;92.90;;;;;;4988773;28;20035;-60
2023/05/02 06:31:00;;;;;;;9.88;3.47;;;14.60;92.90;;;;;;4987385;28;20043;-60
2023/05/02 06:33:29;;;;;;;10.38;3.17;;;14.60;92.90;;;;;;4987928;28;20417;-60
2023/05/02 06:35:55;;;;;;;10.30;3.42;;;14.60;92.90;;;;;;4986487;28;20160;-60
2023/05/02 06:38:20;;;;;;;9.13;3.63;;;14.60;92.90;;;;;;4984078;28;20505;-60
2023/05/02 06:40:46;;;;;;;7.35;3.55;;;14.60;92.90;;;;;;4985812;28;20097;-60
2023/05/02 06:43:12;;;;;;;9.50;3.13;;;14.60;92.90;;;;;;4986674;28;20023;-60
2023/05/02 06:45:38;;;;;;;9.85;3.65;;;14.60;92.90;;;;;;4975505;28;20035;-60
2023/05/02 06:48:04;;;;;;;8.98;2.70;;;14.60;92.90;;;;;;4984117;28;20084;-60
2023/05/02 06:50:29;;;;;;;12.82;3.42;;;14.60;92.90;;;;;;4984720;28;20054;-60
2023/05/02 06:52:55;;;;;;;13.20;3.53;;;14.60;92.80;;;;;;4986089;28;20118;-60
2023/05/02 06:55:21;;;;;;;5.70;2.55;;;14.60;92.90;;;;;;4986981;28;20089;-60
2023/05/02 06:57:48;;;;;;;5.43;2.83;;;14.60;92.80;;;;;;4985160;28;20027;-60
2023/05/02 07:00:15;;;;;;;8.93;3.00;;;14.60;92.70;;;;;;4985113;28;20095;-60
2023/05/02 07:02:41;;;;;;;5.00;3.13;;;14.70;92.70;;;;;;4985982;28;20023;-60
2023/05/02 07:05:06;;;;;;;9.88;2.90;;;14.70;92.60;;;;;;4985877;28;20042;-60
2023/05/02 07:07:32;;;;;;;12.48;3.45;;;14.70;92.60;;;;;;4985537;28;20030;-60
2023/05/02 07:09:58;;;;;;;4.93;2.58;;;14.70;92.60;;;;;;4986266;28;20492;-60
2023/05/02 07:12:24;;;;;;;8.27;2.90;;;14.70;92.50;;;;;;5017543;28;20134;-59
2023/05/02 07:14:50;;;;;;;5.90;2.83;;;14.80;92.50;;;;;;4986342;28;20126;-60
2023/05/02 07:17:15;;;;;;;7.13;2.92;;;14.80;92.50;;;;;;4971607;28;20532;-60
2023/05/02 07:19:41;;;;;;;5.90;2.63;;;14.80;92.40;;;;;;4958891;28;20031;-60
2023/05/02 07:22:07;;;;;;;6.30;2.45;;;14.80;92.70;;;;;;4985192;28;20098;-60
2023/05/02 07:24:32;;;;;;;5.72;2.30;;;14.80;92.50;;;;;;4985469;28;20035;-60
2023/05/02 07:26:58;;;;;;;10.23;2.95;;;14.90;92.40;;;;;;4985679;28;20034;-60
2023/05/02 07:29:23;;;;;;;5.93;2.42;;;14.90;92.40;;;;;;5016737;28;20027;-60
2023/05/02 07:31:49;;;;;;;4.65;2.78;;;14.90;92.30;;;;;;4986144;28;20058;-60
2023/05/02 07:34:15;;;;;;;5.40;2.67;;;14.90;92.40;;;;;;4984213;28;20030;-60
2023/05/02 07:36:40;;;;;;;6.00;2.70;;;15.00;92.30;;;;;;4985121;28;20294;-60
2023/05/02 07:39:06;;;;;;;8.55;2.53;;;15.00;92.30;;;;;;4979925;28;20052;-60
2023/05/02 07:41:31;;;;;;;8.57;3.03;;;15.00;92.30;;;;;;4984966;28;20058;-60
2023/05/02 07:43:57;;;;;;;5.00;2.50;;;15.10;92.30;;;;;;4982016;28;20105;-60
2023/05/02 07:46:23;;;;;;;10.30;3.17;;;15.10;92.30;;;;;;4982930;28;20037;-60
2023/05/02 07:48:49;;;;;;;16.25;3.33;;;15.10;92.20;;;;;;4983390;28;20116;-60
2023/05/02 07:51:15;;;;;;;12.82;2.80;;;15.10;92.20;;;;;;4972040;28;20089;-60
2023/05/02 07:53:40;;;;;;;14.80;2.90;;;15.20;92.20;;;;;;4983730;28;20038;-60
2023/05/02 07:56:07;;;;;;;18.00;3.72;;;15.20;92.20;;;;;;4978896;28;20034;-60
2023/05/02 07:58:36;;;;;;;13.98;4.05;;;15.20;92.20;;;;;;4996306;28;20099;-60
2023/05/02 08:01:02;;;;;;;19.92;3.70;;;15.30;92.20;;;;;;4982981;28;20027;-60
2023/05/02 08:03:29;;;;;;;11.50;3.55;;;15.30;92.20;;;;;;4999691;28;20050;-60
2023/05/02 08:05:55;;;;;;;14.50;3.92;;;15.30;92.10;;;;;;4982566;28;20034;-60
2023/05/02 08:08:20;;;;;;;21.85;4.10;;;15.40;92.10;;;;;;4985219;28;20462;-60
2023/05/02 08:10:46;;;;;;;15.93;3.67;;;15.40;92.20;;;;;;4969687;28;20158;-60
2023/05/02 08:13:12;;;;;;;16.45;3.83;;;15.40;92.20;;;;;;4971369;28;20030;-60
2023/05/02 08:15:37;;;;;;;21.50;4.57;;;15.50;92.20;;;;;;4984498;28;20030;-60
2023/05/02 08:18:03;;;;;;;21.42;4.72;;;15.50;92.20;;;;;;4984447;28;20031;-60
2023/05/02 08:20:28;;;;;;;19.83;4.57;;;15.50;92.10;;;;;;4980647;28;20031;-60
2023/05/02 08:22:54;;;;;;;27.92;5.20;;;15.50;92.20;;;;;;4977752;28;20034;-60
2023/05/02 08:25:19;;;;;;;28.90;6.07;;;15.50;92.10;;;;;;5015566;28;20031;-60
2023/05/02 08:27:45;;;;;;;23.27;5.63;;;15.60;92.20;;;;;;4979306;28;20031;-60
2023/05/02 08:30:11;;;;;;;34.67;5.70;;;15.60;92.10;;;;;;4980731;28;20045;-60
2023/05/02 08:32:37;;;;;;;48.80;5.60;;;15.70;92.30;;;;;;4977598;28;20037;-60
2023/05/02 08:35:03;;;;;;;33.72;5.57;;;15.70;92.30;;;;;;4995273;28;20039;-60
2023/05/02 08:37:28;;;;;;;73.38;8.25;;;15.70;92.20;;;;;;4985515;28;20023;-60
2023/05/02 08:39:54;;;;;;;36.70;6.68;;;15.70;92.20;;;;;;4985196;28;20514;-59
2023/05/02 08:42:20;;;;;;;40.53;6.63;;;15.80;92.20;;;;;;4984921;28;20377;-60
2023/05/02 08:44:47;;;;;;;21.08;5.47;;;15.80;92.10;;;;;;4983405;28;20043;-60
2023/05/02 08:47:13;;;;;;;30.58;5.65;;;15.80;92.20;;;;;;4966904;28;20392;-60
2023/05/02 08:49:39;;;;;;;33.78;6.43;;;15.80;91.80;;;;;;4965455;29;20031;-60
2023/05/02 08:52:05;;;;;;;28.63;6.03;;;15.90;91.80;;;;;;4978434;28;20031;-60
2023/05/02 08:54:31;;;;;;;33.03;6.28;;;15.90;91.80;;;;;;4983614;28;20053;-60
2023/05/02 08:56:58;;;;;;;29.27;6.55;;;16.00;91.80;;;;;;4975512;28;20035;-60
2023/05/02 08:59:24;;;;;;;46.97;7.28;;;16.00;91.70;;;;;;4979424;28;20038;-60
2023/05/02 09:01:51;;;;;;;35.28;6.88;;;16.00;91.70;;;;;;4981140;28;20463;-60
2023/05/02 09:04:19;;;;;;;47.03;7.15;;;16.10;91.60;;;;;;4967993;28;20030;-60
2023/05/02 09:06:45;;;;;;;42.13;7.97;;;16.10;91.60;;;;;;4974303;28;20039;-60
2023/05/02 09:09:10;;;;;;;53.58;7.75;;;16.20;91.60;;;;;;4976938;28;20399;-60
2023/05/02 09:11:36;;;;;;;41.03;7.55;;;16.20;91.60;;;;;;4978440;28;20145;-59
2023/05/02 09:14:03;;;;;;;53.08;8.80;;;16.20;91.50;;;;;;4963519;28;20034;-58
2023/05/02 09:16:28;;;;;;;53.08;8.18;;;16.20;91.50;;;;;;4974405;28;20125;-60
2023/05/02 09:18:55;;;;;;;39.55;7.78;;;16.30;91.40;;;;;;4979102;28;20022;-60
2023/05/02 09:21:22;;;;;;;47.85;8.32;;;16.30;91.40;;;;;;4979032;28;20061;-59
2023/05/02 09:23:53;;;;;;;55.85;7.72;;;16.40;91.30;;;;;;4992338;28;20085;-60
2023/05/02 09:26:20;;;;;;;59.78;8.65;;;16.40;91.30;;;;;;4977740;28;20043;-60
2023/05/02 09:28:50;;;;;;;47.72;7.93;;;16.50;91.20;;;;;;5009007;28;20121;-60
2023/05/02 09:31:20;;;;;;;105.50;11.80;;;16.50;91.50;;;;;;4969372;28;20041;-60
2023/05/02 09:33:46;;;;;;;68.43;9.18;;;16.50;91.20;;;;;;4984428;28;20077;-60
2023/05/02 09:36:15;;;;;;;59.10;9.65;;;16.50;91.20;;;;;;4981686;28;20027;-60
2023/05/02 09:38:41;;;;;;;52.92;8.82;;;16.60;91.20;;;;;;4985562;28;20039;-60
2023/05/02 09:41:08;;;;;;;80.63;9.20;;;16.60;91.20;;;;;;4967522;28;20024;-59
2023/05/02 09:43:33;;;;;;;46.97;9.85;;;16.60;91.00;;;;;;4999068;28;20030;-60
2023/05/02 09:46:03;;;;;;;58.22;8.82;;;16.70;90.90;;;;;;4963451;28;20364;-59
2023/05/02 09:48:30;;;;;;;61.00;9.75;;;16.70;90.80;;;;;;4994558;28;20030;-59
2023/05/02 09:50:56;;;;;;;50.90;8.85;;;16.80;90.90;;;;;;4983787;28;20038;-60
2023/05/02 09:53:25;;;;;;;69.18;9.52;;;16.80;90.80;;;;;;4983679;28;20079;-60
2023/05/02 09:56:03;;;;;;;66.88;10.50;;;16.90;90.80;;;;;;4994300;28;20031;-58
2023/05/02 09:58:32;;;;;;;64.93;9.38;;;16.90;90.70;;;;;;4987329;28;20022;-59
2023/05/02 10:00:58;;;;;;;64.68;10.27;;;17.00;90.70;;;;;;4970369;28;20092;-59
2023/05/02 10:03:25;;;;;;;62.10;9.93;;;16.90;90.80;;;;;;4987841;28;20086;-60
2023/05/02 10:05:53;;;;;;;57.67;9.57;;;17.00;90.70;;;;;;4988626;28;20038;-60
2023/05/02 10:08:18;;;;;;;63.58;9.23;;;17.00;90.70;;;;;;4984022;28;20395;-60
2023/05/02 10:10:51;;;;;;;77.25;10.98;;;17.00;90.60;;;;;;4987342;28;20040;-59
2023/05/02 10:13:20;;;;;;;60.00;9.52;;;17.10;90.60;;;;;;4969120;28;20035;-60
2023/05/02 10:15:45;;;;;;;85.57;11.10;;;17.10;90.60;;;;;;4968051;28;20044;-59
2023/05/02 10:18:13;;;;;;;47.10;8.68;;;17.10;90.40;;;;;;4983339;28;20153;-59
2023/05/02 10:20:43;;;;;;;56.90;9.07;;;17.20;90.70;;;;;;5006577;28;20026;-60
2023/05/02 10:23:09;;;;;;;57.10;9.52;;;17.20;90.30;;;;;;4966523;28;20027;-59
2023/05/02 10:25:35;;;;;;;80.25;11.07;;;17.30;90.20;;;;;;4987169;28;20399;-59
2023/05/02 10:28:00;;;;;;;66.55;9.60;;;17.30;90.20;;;;;;5004469;28;20042;-60
2023/05/02 10:30:26;;;;;;;67.00;9.38;;;17.30;90.20;;;;;;4994227;28;20031;-59
2023/05/02 10:32:55;;;;;;;73.05;8.93;;;17.40;90.20;;;;;;4984080;28;20127;-59
2023/05/02 10:35:20;;;;;;;50.78;7.47;;;17.40;90.10;;;;;;4988990;28;20121;-59
2023/05/02 10:37:46;;;;;;;47.20;8.77;;;17.50;89.90;;;;;;4985494;28;20042;-60
2023/05/02 10:40:12;;;;;;;47.83;8.07;;;17.50;90.00;;;;;;4984249;28;20046;-59
2023/05/02 10:42:39;;;;;;;45.10;8.05;;;17.50;90.00;;;;;;4999329;28;20097;-60
2023/05/02 10:45:09;;;;;;;37.35;7.15;;;17.50;90.30;;;;;;4982614;28;20042;-59
2023/05/02 10:47:34;;;;;;;32.75;6.95;;;17.60;90.00;;;;;;4965006;28;20119;-60
2023/05/02 10:50:01;;;;;;;43.33;8.00;;;17.60;90.00;;;;;;4982933;28;20066;-59
2023/05/02 10:52:32;;;;;;;44.83;6.60;;;17.60;89.90;;;;;;4968947;28;20035;-59
2023/05/02 10:55:18;;;;;;;34.92;7.07;;;17.60;89.70;;;;;;4985187;28;20461;-59
2023/05/02 10:57:56;;;;;;;47.00;6.60;;;17.60;89.60;;;;;;4985650;28;20091;-59
2023/05/02 11:00:23;;;;;;;43.80;7.07;;;17.70;89.60;;;;;;4984651;28;20053;-59
2023/05/02 11:02:50;;;;;;;32.47;6.75;;;17.70;89.50;;;;;;5015437;28;20056;-59
2023/05/02 11:05:16;;;;;;;38.30;5.72;;;17.70;89.40;;;;;;4983481;28;20039;-61
2023/05/02 11:07:41;;;;;;;34.00;7.13;;;17.80;89.40;;;;;;4978242;28;20088;-60
2023/05/02 11:10:16;;;;;;;46.85;7.28;;;17.80;89.10;;;;;;5010185;28;20035;-60
2023/05/02 11:12:48;;;;;;;47.87;7.77;;;17.80;88.80;;;;;;4986136;28;20066;-58
2023/05/02 11:15:52;;;;;;;53.65;7.93;;;17.90;88.60;;;;;;4978403;28;20286;-60
2023/05/02 11:18:18;;;;;;;45.38;7.85;;;17.90;88.40;;;;;;4982363;28;20035;-60
2023/05/02 11:20:44;;;;;;;58.80;6.97;;;18.00;88.20;;;;;;4990795;28;20118;-60
2023/05/02 11:23:12;;;;;;;58.83;7.97;;;18.00;87.90;;;;;;4985023;28;20042;-60
2023/05/02 11:25:39;;;;;;;53.25;7.55;;;18.00;87.80;;;;;;4978050;28;20027;-59
2023/05/02 11:28:06;;;;;;;49.55;8.70;;;18.10;87.80;;;;;;4982988;28;20070;-59
2023/05/02 11:30:39;;;;;;;46.75;7.20;;;18.10;87.60;;;;;;4970137;28;20499;-60
2023/05/02 11:33:04;;;;;;;44.05;7.65;;;18.20;87.50;;;;;;4996145;28;20046;-59
2023/05/02 11:35:30;;;;;;;48.78;8.70;;;18.20;87.30;;;;;;4983587;28;20060;-60
2023/05/02 11:38:01;;;;;;;53.30;9.00;;;18.30;87.00;;;;;;4972019;28;20073;-60
2023/05/02 11:40:27;;;;;;;64.00;9.90;;;18.40;86.70;;;;;;4999937;28;20027;-60
2023/05/02 11:42:53;;;;;;;52.10;8.60;;;18.50;86.40;;;;;;4991408;28;20081;-59
2023/05/02 11:45:19;;;;;;;60.78;8.85;;;18.60;86.10;;;;;;4980019;28;20495;-60
2023/05/02 11:47:46;;;;;;;67.90;8.95;;;18.70;85.90;;;;;;4987991;28;20031;-60
2023/05/02 11:50:11;;;;;;;54.17;8.90;;;18.70;85.50;;;;;;4997058;28;20042;-60
2023/05/02 11:52:38;;;;;;;54.30;8.57;;;18.80;85.30;;;;;;4983649;28;20039;-60
2023/05/02 11:55:08;;;;;;;51.70;9.20;;;18.90;85.00;;;;;;4947324;28;20055;-59
2023/05/02 11:57:34;;;;;;;64.90;9.32;;;19.00;84.80;;;;;;4974243;28;20032;-59
2023/05/02 12:00:00;;;;;;;50.33;8.82;;;19.10;84.50;;;;;;4980243;28;20473;-59
2023/05/02 12:02:41;;;;;;;53.20;8.95;;;19.20;84.50;;;;;;4975643;28;20034;-60
2023/05/02 12:05:08;;;;;;;58.97;9.05;;;19.20;84.40;;;;;;4970206;28;20516;-60
2023/05/02 12:07:41;;;;;;;60.10;10.48;;;19.20;84.00;;;;;;4965329;28;20078;-59
2023/05/02 12:10:07;;;;;;;66.95;9.90;;;19.30;83.90;;;;;;4962515;28;20111;-60
2023/05/02 12:12:33;;;;;;;46.40;8.55;;;19.30;83.80;;;;;;4986866;28;20027;-60
2023/05/02 12:15:06;;;;;;;66.40;9.30;;;19.30;84.00;;;;;;4991774;28;20035;-59
2023/05/02 12:17:32;;;;;;;44.30;8.13;;;19.40;83.90;;;;;;4983043;28;20089;-60
2023/05/02 12:19:58;;;;;;;47.78;8.63;;;19.30;83.90;;;;;;4978691;28;20043;-59
2023/05/02 12:22:24;;;;;;;50.60;8.23;;;19.40;84.20;;;;;;4948978;29;20034;-60
2023/05/02 12:24:49;;;;;;;55.85;8.93;;;19.40;84.10;;;;;;4954253;29;20036;-59
2023/05/02 12:27:15;;;;;;;52.75;8.95;;;19.40;84.10;;;;;;4982344;28;20111;-59
2023/05/02 12:29:43;;;;;;;47.92;8.02;;;19.50;84.20;;;;;;4984930;28;20099;-59
2023/05/02 12:32:12;;;;;;;43.22;8.10;;;19.40;84.30;;;;;;4984361;28;20035;-59
2023/05/02 12:34:38;;;;;;;54.78;8.77;;;19.50;84.50;;;;;;4976308;28;20107;-59
2023/05/02 12:37:04;;;;;;;31.50;6.97;;;19.40;84.30;;;;;;4975275;28;20028;-59
2023/05/02 12:39:41;;;;;;;50.33;7.45;;;19.50;84.40;;;;;;4964878;28;20053;-59
2023/05/02 12:42:13;;;;;;;19.58;4.93;;;19.50;84.10;;;;;;4966860;28;20025;-59
2023/05/02 12:44:41;;;;;;;32.88;5.80;;;19.50;83.90;;;;;;4965031;28;20038;-59
2023/05/02 12:47:09;;;;;;;21.08;5.47;;;19.50;83.50;;;;;;4997100;28;20059;-59
2023/05/02 12:49:57;;;;;;;35.78;5.47;;;19.50;83.10;;;;;;4979831;28;20038;-59
2023/05/02 12:52:58;;;;;;;25.17;5.38;;;19.50;83.10;;;;;;4968479;28;20086;-59